Rock Hill, Louisiana
Current Conditions -  °F | °C
As of 2:53 AM on Sunday 23 Nov 2014 (Local Time) from KAEX Reporting Station
Light Rain Light Rain  
Wind Chill: 63°   Ceiling: 700
Heat Index: 63°   Visibility: 6mi
Dew Point: 62°   Wind: 13mph
Humidity: 97%   Direction: 140°SE
Pressure: 29.72"   Gusts: NA
Location:  31.6531°N, 92.5571°W
Report Text: KAEX 230853Z 14011KT 6SM -RA BR OVC007 17/17 A2972 RMK AO2 LTG DSNT S SLP067 P0005 60005 T01720167 56023
Loading
Personal Weather Stations






























Interactive Weather Map New forecast layout! Learn more

10-Day Weather Forecast

Advertisements
Track Severe Weather on mobile